createdAt,value
2023-02-01T00:00:52.186Z,5.85
2023-02-01T00:02:56.780Z,4.65
2023-02-01T00:05:00.091Z,5.82
2023-02-01T00:07:03.258Z,4.72
2023-02-01T00:09:06.472Z,5.20
2023-02-01T00:11:11.556Z,5.68
2023-02-01T00:13:14.744Z,4.95
2023-02-01T00:15:17.990Z,5.07
2023-02-01T00:17:21.705Z,5.45
2023-02-01T00:19:26.338Z,5.25
2023-02-01T00:21:30.633Z,5.50
2023-02-01T00:23:35.364Z,5.95
2023-02-01T00:25:38.596Z,5.95
2023-02-01T00:27:41.813Z,5.60
2023-02-01T00:29:45.294Z,5.10
2023-02-01T00:31:48.848Z,4.90
2023-02-01T00:33:52.584Z,5.15
2023-02-01T00:36:00.422Z,4.78
2023-02-01T00:38:04.016Z,5.82
2023-02-01T00:40:08.553Z,4.70
2023-02-01T00:42:11.918Z,5.85
2023-02-01T00:44:14.983Z,5.25
2023-02-01T00:46:20.226Z,5.60
2023-02-01T00:48:23.351Z,5.70
2023-02-01T00:50:26.425Z,6.05
2023-02-01T00:52:30.842Z,5.53
2023-02-01T00:54:35.613Z,6.47
2023-02-01T00:56:38.685Z,5.90
2023-02-01T00:58:45.224Z,6.10
2023-02-01T01:00:50.523Z,5.85
2023-02-01T01:02:54.234Z,6.68
2023-02-01T01:04:57.303Z,6.97
2023-02-01T01:07:00.425Z,6.40
2023-02-01T01:09:07.063Z,6.03
2023-02-01T01:11:11.877Z,6.10
2023-02-01T01:13:14.965Z,6.32
2023-02-01T01:15:18.071Z,6.13
2023-02-01T01:17:21.143Z,6.20
2023-02-01T01:19:24.222Z,6.78
2023-02-01T01:21:27.807Z,7.10
2023-02-01T01:23:30.978Z,5.65
2023-02-01T01:25:40.121Z,5.45
2023-02-01T01:27:43.187Z,6.18
2023-02-01T01:29:46.309Z,6.18
2023-02-01T01:31:49.447Z,6.10
2023-02-01T01:33:54.329Z,6.55
2023-02-01T01:35:57.490Z,5.85
2023-02-01T01:38:02.100Z,6.15
2023-02-01T01:40:05.807Z,6.10
2023-02-01T01:42:14.169Z,6.25
2023-02-01T01:44:53.356Z,6.93
2023-02-01T01:46:56.685Z,6.78
2023-02-01T01:49:06.668Z,6.57
2023-02-01T01:51:13.495Z,6.15
2023-02-01T01:53:22.057Z,6.78
2023-02-01T01:55:27.343Z,6.55
2023-02-01T01:57:37.624Z,6.55
2023-02-01T01:59:44.731Z,6.15
2023-02-01T02:01:48.456Z,6.30
2023-02-01T02:03:52.600Z,6.60
2023-02-01T02:05:59.985Z,6.65
2023-02-01T02:08:03.306Z,7.95
2023-02-01T02:10:07.790Z,6.00
2023-02-01T02:12:11.031Z,6.60
2023-02-01T02:14:19.278Z,6.22
2023-02-01T02:16:40.031Z,6.22
2023-02-01T02:18:50.192Z,6.30
2023-02-01T02:21:14.078Z,6.07
2023-02-01T02:23:52.586Z,6.53
2023-02-01T02:26:43.418Z,5.85
2023-02-01T02:29:16.630Z,7.05
2023-02-01T02:31:42.235Z,5.50
2023-02-01T02:34:00.003Z,6.45
2023-02-01T02:36:08.908Z,6.00
2023-02-01T02:38:21.205Z,6.35
2023-02-01T02:40:33.342Z,6.45
2023-02-01T02:43:00.353Z,6.25
2023-02-01T02:45:27.413Z,5.80
2023-02-01T02:47:38.109Z,5.93
2023-02-01T02:50:09.202Z,6.90
2023-02-01T02:52:32.735Z,7.18
2023-02-01T02:54:48.397Z,5.93
2023-02-01T02:57:12.409Z,5.93
2023-02-01T02:59:40.104Z,6.72
2023-02-01T03:02:01.542Z,5.97
2023-02-01T03:04:09.947Z,5.72
2023-02-01T03:06:19.956Z,6.83
2023-02-01T03:08:27.293Z,5.80
2023-02-01T03:10:39.965Z,6.82
2023-02-01T03:12:56.353Z,6.10
2023-02-01T03:15:05.819Z,6.18
2023-02-01T03:17:14.193Z,6.00
2023-02-01T03:19:21.878Z,6.55
2023-02-01T03:21:30.000Z,5.93
2023-02-01T03:23:36.957Z,5.50
2023-02-01T03:25:40.284Z,6.05
2023-02-01T03:27:50.380Z,5.32
2023-02-01T03:30:01.340Z,4.25
2023-02-01T03:32:04.656Z,4.57
2023-02-01T03:34:07.898Z,4.00
2023-02-01T03:36:17.992Z,4.20
2023-02-01T03:38:26.992Z,4.10
2023-02-01T03:40:35.079Z,4.32
2023-02-01T03:42:42.495Z,3.40
2023-02-01T03:44:51.691Z,3.65
2023-02-01T03:46:57.670Z,4.43
2023-02-01T03:49:05.518Z,4.43
2023-02-01T03:51:10.360Z,4.40
2023-02-01T03:53:18.022Z,4.72
2023-02-01T03:55:25.571Z,5.00
2023-02-01T03:57:33.633Z,4.38
2023-02-01T03:59:41.162Z,5.03
2023-02-01T04:01:44.703Z,4.50
2023-02-01T04:03:47.797Z,4.80
2023-02-01T04:05:51.146Z,4.85
2023-02-01T04:07:55.273Z,4.38
2023-02-01T04:09:58.538Z,4.95
2023-02-01T04:12:03.400Z,5.07
2023-02-01T04:14:06.522Z,4.97
2023-02-01T04:16:09.612Z,4.75
2023-02-01T04:18:12.708Z,5.20
2023-02-01T04:20:15.896Z,5.72
2023-02-01T04:22:18.973Z,4.40
2023-02-01T04:24:22.148Z,4.03
2023-02-01T04:26:25.249Z,4.90
2023-02-01T04:28:29.703Z,4.95
2023-02-01T04:30:32.879Z,4.10
2023-02-01T04:32:36.081Z,4.22
2023-02-01T04:34:39.189Z,3.90
2023-02-01T04:36:42.235Z,3.90
2023-02-01T04:38:45.388Z,3.00
2023-02-01T04:40:50.255Z,2.83
2023-02-01T04:42:53.445Z,3.35
2023-02-01T04:44:57.910Z,3.50
2023-02-01T04:47:00.973Z,3.40
2023-02-01T04:49:04.017Z,2.88
2023-02-01T04:51:07.893Z,3.40
2023-02-01T04:53:10.971Z,3.08
2023-02-01T04:55:14.652Z,2.67
2023-02-01T04:57:17.760Z,2.83
2023-02-01T04:59:20.851Z,3.17
2023-02-01T05:01:26.492Z,2.30
2023-02-01T05:03:29.543Z,2.85
2023-02-01T05:05:32.633Z,1.90
2023-02-01T05:07:35.697Z,1.77
2023-02-01T05:09:38.777Z,1.83
2023-02-01T05:11:59.132Z,1.25
2023-02-01T05:14:02.853Z,1.30
2023-02-01T05:16:06.733Z,1.27
2023-02-01T05:18:11.197Z,1.05
2023-02-01T05:20:14.245Z,1.25
2023-02-01T05:22:17.477Z,1.10
2023-02-01T05:24:21.688Z,0.77
2023-02-01T05:26:24.902Z,1.30
2023-02-01T05:28:28.340Z,0.90
2023-02-01T05:30:31.638Z,1.10
2023-02-01T05:32:35.080Z,0.95
2023-02-01T05:34:39.553Z,1.05
2023-02-01T05:36:43.007Z,1.10
2023-02-01T05:38:46.194Z,0.90
2023-02-01T05:40:50.657Z,0.90
2023-02-01T05:42:53.776Z,1.00
2023-02-01T05:44:56.847Z,1.02
2023-02-01T05:46:59.936Z,0.90
2023-02-01T05:49:03.087Z,1.00
2023-02-01T05:51:07.890Z,0.80
2023-02-01T05:53:11.013Z,0.80
2023-02-01T05:55:14.357Z,0.90
2023-02-01T05:57:18.279Z,0.90
2023-02-01T05:59:21.385Z,0.77
2023-02-01T06:01:24.463Z,0.70
2023-02-01T06:03:27.554Z,0.70
2023-02-01T06:05:30.626Z,0.98
2023-02-01T06:07:35.100Z,0.90
2023-02-01T06:09:38.632Z,0.90
2023-02-01T06:11:42.384Z,0.90
2023-02-01T06:13:45.472Z,1.20
2023-02-01T06:15:48.583Z,1.02
2023-02-01T06:17:51.658Z,1.17
2023-02-01T06:19:55.301Z,1.90
2023-02-01T06:21:58.356Z,1.70
2023-02-01T06:24:02.812Z,1.40
2023-02-01T06:26:08.630Z,1.60
2023-02-01T06:28:11.914Z,1.15
2023-02-01T06:30:15.936Z,2.03
2023-02-01T06:32:20.251Z,1.75
2023-02-01T06:34:24.938Z,2.45
2023-02-01T06:36:28.078Z,2.58
2023-02-01T06:38:31.728Z,2.10
2023-02-01T06:40:36.440Z,2.13
2023-02-01T06:42:39.668Z,2.85
2023-02-01T06:44:42.709Z,2.65
2023-02-01T06:46:46.036Z,2.92
2023-02-01T06:48:50.287Z,3.00
2023-02-01T06:50:53.406Z,3.05
2023-02-01T06:52:57.189Z,3.25
2023-02-01T06:55:00.282Z,2.88
2023-02-01T06:57:04.896Z,3.38
2023-02-01T06:59:08.384Z,3.38
2023-02-01T07:01:12.682Z,3.47
2023-02-01T07:03:15.727Z,3.22
2023-02-01T07:05:18.866Z,4.40
2023-02-01T07:07:23.508Z,3.40
2023-02-01T07:09:26.631Z,3.72
2023-02-01T07:11:29.768Z,2.90
2023-02-01T07:13:34.292Z,3.50
2023-02-01T07:15:37.384Z,3.28
2023-02-01T07:17:40.470Z,4.38
2023-02-01T07:19:43.495Z,4.57
2023-02-01T07:21:46.596Z,3.72
2023-02-01T07:23:49.762Z,3.90
2023-02-01T07:25:55.737Z,4.00
2023-02-01T07:27:59.252Z,4.80
2023-02-01T07:30:04.028Z,3.28
2023-02-01T07:32:07.465Z,3.60
2023-02-01T07:34:10.507Z,4.32
2023-02-01T07:36:15.149Z,3.80
2023-02-01T07:38:18.631Z,4.18
2023-02-01T07:40:26.060Z,4.53
2023-02-01T07:42:29.130Z,5.20
2023-02-01T07:44:32.246Z,5.13
2023-02-01T07:46:37.300Z,5.47
2023-02-01T07:48:40.576Z,5.25
2023-02-01T07:50:43.677Z,6.28
2023-02-01T07:52:46.755Z,5.97
2023-02-01T07:54:49.875Z,6.85
2023-02-01T07:56:52.935Z,5.85
2023-02-01T07:58:57.017Z,6.13
2023-02-01T08:01:17.517Z,6.40
2023-02-01T08:03:21.972Z,6.15
2023-02-01T08:05:25.072Z,5.53
2023-02-01T08:07:28.321Z,5.40
2023-02-01T08:09:32.153Z,5.88
2023-02-01T08:11:37.592Z,5.53
2023-02-01T08:13:41.397Z,5.63
2023-02-01T08:15:44.498Z,5.45
2023-02-01T08:17:50.532Z,5.47
2023-02-01T08:19:55.355Z,6.32
2023-02-01T08:22:00.212Z,5.82
2023-02-01T08:24:03.341Z,5.40
2023-02-01T08:26:12.164Z,5.60
2023-02-01T08:28:15.660Z,5.75
2023-02-01T08:30:19.521Z,5.20
2023-02-01T08:32:22.621Z,5.55
2023-02-01T08:34:25.710Z,4.60
2023-02-01T08:36:32.548Z,3.58
2023-02-01T08:38:37.026Z,3.53
2023-02-01T08:40:42.359Z,3.90
2023-02-01T08:42:54.992Z,3.42
2023-02-01T08:44:58.327Z,3.65
2023-02-01T08:47:01.999Z,4.28
2023-02-01T08:49:05.159Z,3.47
2023-02-01T08:51:10.815Z,3.45
2023-02-01T08:53:15.814Z,3.75
2023-02-01T08:55:19.240Z,3.88
2023-02-01T08:57:22.709Z,4.53
2023-02-01T08:59:27.849Z,4.18
2023-02-01T09:01:40.930Z,4.20
2023-02-01T09:03:45.619Z,4.82
2023-02-01T09:05:54.066Z,5.00
2023-02-01T09:08:01.716Z,5.05
2023-02-01T09:10:08.200Z,4.50
2023-02-01T09:12:11.252Z,4.82
2023-02-01T09:14:14.876Z,5.63
2023-02-01T09:16:17.962Z,4.75
2023-02-01T09:18:21.104Z,5.35
2023-02-01T09:20:25.461Z,5.65
2023-02-01T09:22:28.839Z,5.35
2023-02-01T09:24:32.198Z,4.57
2023-02-01T09:26:36.657Z,5.00
2023-02-01T09:28:39.689Z,4.32
2023-02-01T09:30:43.035Z,4.63
2023-02-01T09:32:46.180Z,4.57
2023-02-01T09:34:49.168Z,5.55
2023-02-01T09:36:54.417Z,4.90
2023-02-01T09:38:57.514Z,4.95
2023-02-01T09:41:01.673Z,5.22
2023-02-01T09:43:23.715Z,5.72
2023-02-01T09:45:34.786Z,4.55
2023-02-01T09:47:42.915Z,4.63
2023-02-01T09:49:54.958Z,4.78
2023-02-01T09:51:59.046Z,4.72
2023-02-01T09:54:05.861Z,4.10
2023-02-01T09:56:14.499Z,4.85
2023-02-01T09:58:24.857Z,4.82
2023-02-01T10:00:31.647Z,5.10
2023-02-01T10:02:41.406Z,5.15
2023-02-01T10:04:44.493Z,6.18
2023-02-01T10:06:59.916Z,4.85
2023-02-01T10:09:24.640Z,10.18
2023-02-01T10:11:49.031Z,4.43
2023-02-01T10:14:01.927Z,5.43
2023-02-01T10:16:19.041Z,4.18
2023-02-01T10:18:52.348Z,5.35
2023-02-01T10:21:04.415Z,4.65
2023-02-01T10:23:32.928Z,4.90
2023-02-01T10:25:41.294Z,4.60
2023-02-01T10:27:44.373Z,4.90
2023-02-01T10:29:51.721Z,5.80
2023-02-01T10:31:55.024Z,4.80
2023-02-01T10:34:00.715Z,4.80
2023-02-01T10:36:12.643Z,4.45
2023-02-01T10:38:23.565Z,4.43
2023-02-01T10:40:28.159Z,4.30
2023-02-01T10:42:33.158Z,4.95
2023-02-01T10:44:43.962Z,5.22
2023-02-01T10:46:48.349Z,4.57
2023-02-01T10:48:54.565Z,5.85
2023-02-01T10:51:02.097Z,4.70
2023-02-01T10:53:10.554Z,5.40
2023-02-01T10:55:40.084Z,4.60
2023-02-01T10:57:44.499Z,4.47
2023-02-01T10:59:47.460Z,6.05
2023-02-01T11:02:00.378Z,17.55
2023-02-01T11:04:05.724Z,5.32
2023-02-01T11:06:16.143Z,9.27
2023-02-01T11:08:20.886Z,5.95
2023-02-01T11:10:42.572Z,4.72
2023-02-01T11:15:05.903Z,4.45
2023-02-01T11:17:27.248Z,4.05
2023-02-01T11:19:31.289Z,5.43
2023-02-01T11:21:35.236Z,4.93
2023-02-01T11:23:44.931Z,4.68
2023-02-01T11:25:53.202Z,5.00
2023-02-01T11:27:57.921Z,5.30
2023-02-01T11:30:04.995Z,4.75
2023-02-01T11:32:11.052Z,5.22
2023-02-01T11:34:19.611Z,4.60
2023-02-01T11:36:27.433Z,4.63
2023-02-01T11:38:32.358Z,4.80
2023-02-01T11:40:38.574Z,4.70
2023-02-01T11:42:56.333Z,5.65
2023-02-01T11:45:20.109Z,4.40
2023-02-01T11:47:28.194Z,5.07
2023-02-01T11:49:32.589Z,5.28
2023-02-01T11:51:49.041Z,4.35
2023-02-01T11:54:17.603Z,3.90
2023-02-01T11:56:28.109Z,4.28
2023-02-01T11:59:06.808Z,3.78
2023-02-01T12:01:40.599Z,2.85
2023-02-01T12:04:07.723Z,3.03
2023-02-01T12:06:19.965Z,3.15
2023-02-01T12:09:04.554Z,3.50
2023-02-01T12:11:29.462Z,3.47
2023-02-01T12:13:45.225Z,3.60
2023-02-01T12:16:04.112Z,2.90
2023-02-01T12:18:52.917Z,2.42
2023-02-01T12:21:06.804Z,3.42
2023-02-01T12:23:28.546Z,3.20
2023-02-01T12:28:11.302Z,2.40
2023-02-01T12:30:36.774Z,3.03
2023-02-01T12:32:55.592Z,3.80
2023-02-01T12:35:15.845Z,2.08
2023-02-01T12:37:28.961Z,1.85
2023-02-01T12:39:34.800Z,1.30
2023-02-01T12:41:56.098Z,0.80
2023-02-01T12:44:03.005Z,0.98
2023-02-01T12:46:11.468Z,0.70
2023-02-01T12:48:27.688Z,1.23
2023-02-01T12:50:37.633Z,0.93
2023-02-01T12:52:48.387Z,1.20
2023-02-01T12:54:59.167Z,1.20
2023-02-01T12:57:06.364Z,1.10
2023-02-01T12:59:19.149Z,0.98
2023-02-01T13:01:26.901Z,0.90
2023-02-01T13:03:40.381Z,0.63
2023-02-01T13:05:51.268Z,0.90
2023-02-01T13:07:59.981Z,0.90
2023-02-01T13:10:14.646Z,0.75
2023-02-01T13:12:21.286Z,0.70
2023-02-01T13:14:31.672Z,0.98
2023-02-01T13:16:37.739Z,1.40
2023-02-01T13:18:45.151Z,0.90
2023-02-01T13:20:55.407Z,0.77
2023-02-01T13:23:04.909Z,0.90
2023-02-01T13:25:14.738Z,1.20
2023-02-01T13:27:19.483Z,0.77
2023-02-01T13:29:23.732Z,1.27
2023-02-01T13:31:55.343Z,0.95
2023-02-01T13:34:29.679Z,1.10
2023-02-01T13:36:45.059Z,0.90
2023-02-01T13:39:14.774Z,0.93
2023-02-01T13:41:32.064Z,0.90
2023-02-01T13:43:36.092Z,0.93
2023-02-01T13:45:46.584Z,1.20
2023-02-01T13:47:54.004Z,1.27
2023-02-01T13:49:59.837Z,1.70
2023-02-01T13:52:02.972Z,1.58
2023-02-01T13:54:07.600Z,1.15
2023-02-01T13:56:15.494Z,1.00
2023-02-01T13:58:23.699Z,1.30
2023-02-01T14:00:31.596Z,1.25
2023-02-01T14:02:50.491Z,1.75
2023-02-01T14:04:53.610Z,1.30
2023-02-01T14:06:59.246Z,1.25
2023-02-01T14:09:18.936Z,2.25
2023-02-01T14:11:44.950Z,2.85
2023-02-01T14:13:49.416Z,2.00
2023-02-01T14:16:17.092Z,2.30
2023-02-01T14:19:00.547Z,2.20
2023-02-01T14:21:23.755Z,2.75
2023-02-01T14:23:31.563Z,2.50
2023-02-01T14:25:35.535Z,2.38
2023-02-01T14:27:38.620Z,3.08
2023-02-01T14:29:45.574Z,1.85
2023-02-01T14:31:58.342Z,3.08
2023-02-01T14:34:05.308Z,2.20
2023-02-01T14:36:11.476Z,2.00
2023-02-01T14:38:14.798Z,2.25
2023-02-01T14:40:25.206Z,2.50
2023-02-01T14:42:31.425Z,2.45
2023-02-01T14:44:38.011Z,2.42
2023-02-01T14:47:33.231Z,2.88
2023-02-01T14:49:43.917Z,2.88
2023-02-01T14:51:47.842Z,2.80
2023-02-01T14:53:52.414Z,2.55
2023-02-01T14:56:02.690Z,2.13
2023-02-01T14:58:17.092Z,2.42
2023-02-01T15:00:24.689Z,3.05
2023-02-01T15:02:29.054Z,2.55
2023-02-01T15:04:45.032Z,3.15
2023-02-01T15:06:50.978Z,3.17
2023-02-01T15:08:57.907Z,2.85
2023-02-01T15:11:04.065Z,2.85
2023-02-01T15:13:07.093Z,2.75
2023-02-01T15:15:18.250Z,2.88
2023-02-01T15:17:23.067Z,2.72
2023-02-01T15:19:28.250Z,4.60
2023-02-01T15:21:32.800Z,3.85
2023-02-01T15:23:36.007Z,2.50
2023-02-01T15:25:40.809Z,2.75
2023-02-01T15:27:43.893Z,2.95
2023-02-01T15:29:46.958Z,2.65
2023-02-01T15:31:52.170Z,2.45
2023-02-01T15:33:59.172Z,2.53
2023-02-01T15:36:12.513Z,2.63
2023-02-01T15:38:44.677Z,3.40
2023-02-01T15:40:57.104Z,3.28
2023-02-01T15:43:01.507Z,3.05
2023-02-01T15:45:05.107Z,3.70
2023-02-01T15:47:15.705Z,2.78
2023-02-01T15:49:25.945Z,4.07
2023-02-01T15:51:33.530Z,4.03
2023-02-01T15:53:36.676Z,3.35
2023-02-01T15:55:44.730Z,3.55
2023-02-01T15:57:48.532Z,4.38
2023-02-01T15:59:56.234Z,3.70
2023-02-01T16:01:59.464Z,3.42
2023-02-01T16:04:17.825Z,5.25
2023-02-01T16:06:31.444Z,5.65
2023-02-01T16:08:35.775Z,4.85
2023-02-01T16:10:43.777Z,3.97
2023-02-01T16:12:49.161Z,5.68
2023-02-01T16:14:52.694Z,4.55
2023-02-01T16:16:58.155Z,6.50
2023-02-01T16:19:01.237Z,4.15
2023-02-01T16:21:04.471Z,7.22
2023-02-01T16:23:09.331Z,4.03
2023-02-01T16:25:12.551Z,4.32
2023-02-01T16:27:17.782Z,4.78
2023-02-01T16:29:22.632Z,4.88
2023-02-01T16:31:29.986Z,4.80
2023-02-01T16:33:33.266Z,8.18
2023-02-01T16:35:38.391Z,5.65
2023-02-01T16:37:41.504Z,5.10
2023-02-01T16:39:44.651Z,4.68
2023-02-01T16:41:47.944Z,4.60
2023-02-01T16:43:54.818Z,6.38
2023-02-01T16:46:03.510Z,5.78
2023-02-01T16:48:06.945Z,5.40
2023-02-01T16:50:23.089Z,5.28
2023-02-01T16:52:28.090Z,5.55
2023-02-01T16:54:31.268Z,5.22
2023-02-01T16:56:36.745Z,5.70
2023-02-01T16:58:42.179Z,7.07
2023-02-01T17:00:47.883Z,5.63
2023-02-01T17:02:50.918Z,6.22
2023-02-01T17:04:54.088Z,5.93
2023-02-01T17:06:59.237Z,6.25
2023-02-01T17:09:03.583Z,5.57
2023-02-01T17:11:08.087Z,5.15
2023-02-01T17:13:14.638Z,5.55
2023-02-01T17:15:17.990Z,6.38
2023-02-01T17:17:37.677Z,6.18
2023-02-01T17:19:41.719Z,6.05
2023-02-01T17:21:47.260Z,5.72
2023-02-01T17:23:50.407Z,5.43
2023-02-01T17:25:53.932Z,5.78
2023-02-01T17:27:57.426Z,6.47
2023-02-01T17:30:02.183Z,5.88
2023-02-01T17:32:06.714Z,5.47
2023-02-01T17:34:12.594Z,6.53
2023-02-01T17:36:17.922Z,6.43
2023-02-01T17:38:21.113Z,5.55
2023-02-01T17:40:24.596Z,5.85
2023-02-01T17:42:29.650Z,6.15
2023-02-01T17:44:33.311Z,4.68
2023-02-01T17:46:36.372Z,5.35
2023-02-01T17:48:39.809Z,5.85
2023-02-01T17:50:44.352Z,6.10
2023-02-01T17:52:47.440Z,4.97
2023-02-01T17:54:53.848Z,5.47
2023-02-01T17:57:00.187Z,5.20
2023-02-01T17:59:03.302Z,4.55
2023-02-01T18:01:06.651Z,5.43
2023-02-01T18:03:22.551Z,6.85
2023-02-01T18:05:39.708Z,6.43
2023-02-01T18:07:44.250Z,4.90
2023-02-01T18:09:47.325Z,5.47
2023-02-01T18:11:50.505Z,5.60
2023-02-01T18:13:54.791Z,5.47
2023-02-01T18:15:59.876Z,5.22
2023-02-01T18:18:03.293Z,5.63
2023-02-01T18:20:07.421Z,6.00
2023-02-01T18:22:17.404Z,5.68
2023-02-01T18:24:24.044Z,5.53
2023-02-01T18:26:27.291Z,5.30
2023-02-01T18:28:30.420Z,5.60
2023-02-01T18:30:35.515Z,5.85
2023-02-01T18:32:38.758Z,5.75
2023-02-01T18:34:41.877Z,6.03
2023-02-01T18:36:45.091Z,6.22
2023-02-01T18:38:48.567Z,5.25
2023-02-01T18:40:54.708Z,5.97
2023-02-01T18:42:58.259Z,5.78
2023-02-01T18:45:02.077Z,5.88
2023-02-01T18:47:05.179Z,5.35
2023-02-01T18:49:08.590Z,6.13
2023-02-01T18:51:12.819Z,5.20
2023-02-01T18:53:19.979Z,5.85
2023-02-01T18:55:23.808Z,5.05
2023-02-01T18:57:28.496Z,5.95
2023-02-01T18:59:31.675Z,5.63
2023-02-01T19:01:34.871Z,5.82
2023-02-01T19:03:40.215Z,5.75
2023-02-01T19:05:48.184Z,5.50
2023-02-01T19:07:51.568Z,5.18
2023-02-01T19:09:54.650Z,5.72
2023-02-01T19:11:57.686Z,5.30
2023-02-01T19:14:02.169Z,6.40
2023-02-01T19:16:07.823Z,6.25
2023-02-01T19:18:11.653Z,6.15
2023-02-01T19:20:17.433Z,5.60
2023-02-01T19:22:20.466Z,6.47
2023-02-01T19:24:27.959Z,4.97
2023-02-01T19:26:31.308Z,5.43
2023-02-01T19:28:34.497Z,6.38
2023-02-01T19:30:39.063Z,6.05
2023-02-01T19:32:42.429Z,5.68
2023-02-01T19:34:45.621Z,4.90
2023-02-01T19:36:49.604Z,4.45
2023-02-01T19:38:52.709Z,3.25
2023-02-01T19:40:56.777Z,2.88
2023-02-01T19:43:00.036Z,3.60
2023-02-01T19:45:03.223Z,3.25
2023-02-01T19:47:09.229Z,2.97
2023-02-01T19:49:12.552Z,3.08
2023-02-01T19:51:15.685Z,2.55
2023-02-01T19:53:19.385Z,3.40
2023-02-01T19:55:22.747Z,2.58
2023-02-01T19:57:26.139Z,3.28
2023-02-01T19:59:29.433Z,3.60
2023-02-01T20:01:32.835Z,3.63
2023-02-01T20:03:37.326Z,3.85
2023-02-01T20:05:40.485Z,4.70
2023-02-01T20:07:43.648Z,4.25
2023-02-01T20:09:46.708Z,4.13
2023-02-01T20:11:50.523Z,4.35
2023-02-01T20:13:53.614Z,4.55
2023-02-01T20:15:58.434Z,4.97
2023-02-01T20:18:02.664Z,5.18
2023-02-01T20:20:08.524Z,4.35
2023-02-01T20:22:11.616Z,4.53
2023-02-01T20:24:17.233Z,4.72
2023-02-01T20:26:24.667Z,5.20
2023-02-01T20:28:27.755Z,5.97
2023-02-01T20:30:32.287Z,6.13
2023-02-01T20:32:35.490Z,6.10
2023-02-01T20:34:38.631Z,5.60
2023-02-01T20:36:43.227Z,6.28
2023-02-01T20:38:46.403Z,5.82
2023-02-01T20:40:49.844Z,5.65
2023-02-01T20:42:52.952Z,6.80
2023-02-01T20:44:57.055Z,6.50
2023-02-01T20:47:00.355Z,5.80
2023-02-01T20:49:03.502Z,5.50
2023-02-01T20:51:07.031Z,5.20
2023-02-01T20:53:17.044Z,6.20
2023-02-01T20:55:26.328Z,5.78
2023-02-01T20:57:29.455Z,6.05
2023-02-01T20:59:32.594Z,5.40
2023-02-01T21:01:35.885Z,5.65
2023-02-01T21:03:43.141Z,6.13
2023-02-01T21:05:51.313Z,6.35
2023-02-01T21:07:54.578Z,6.05
2023-02-01T21:09:59.675Z,5.97
2023-02-01T21:12:02.721Z,7.35
2023-02-01T21:14:08.437Z,5.63
2023-02-01T21:16:13.396Z,5.72
2023-02-01T21:18:16.470Z,5.57
2023-02-01T21:20:21.451Z,5.25
2023-02-01T21:22:24.541Z,5.32
2023-02-01T21:24:27.908Z,5.57
2023-02-01T21:26:40.948Z,6.38
2023-02-01T21:28:44.705Z,5.50
2023-02-01T21:30:48.053Z,5.53
2023-02-01T21:32:51.279Z,5.85
2023-02-01T21:34:54.438Z,5.18
2023-02-01T21:36:57.477Z,4.93
2023-02-01T21:39:03.661Z,6.57
2023-02-01T21:41:20.618Z,6.07
2023-02-01T21:43:25.068Z,5.68
2023-02-01T21:45:28.303Z,5.50
2023-02-01T21:47:31.366Z,6.32
2023-02-01T21:49:37.093Z,11.63
2023-02-01T21:51:40.485Z,7.60
2023-02-01T21:53:44.546Z,6.95
2023-02-01T21:55:50.708Z,5.53
2023-02-01T21:57:53.896Z,16.95
2023-02-01T21:59:59.289Z,8.00
2023-02-01T22:02:02.407Z,6.25
2023-02-01T22:04:06.782Z,5.20
2023-02-01T22:06:09.894Z,6.75
2023-02-01T22:08:13.021Z,6.40
2023-02-01T22:10:16.230Z,6.78
2023-02-01T22:12:19.421Z,6.07
2023-02-01T22:14:23.139Z,5.70
2023-02-01T22:16:29.120Z,5.22
2023-02-01T22:18:34.136Z,5.75
2023-02-01T22:20:38.437Z,5.95
2023-02-01T22:22:41.517Z,6.43
2023-02-01T22:24:44.561Z,5.93
2023-02-01T22:26:47.996Z,5.78
2023-02-01T22:28:51.594Z,5.93
2023-02-01T22:30:54.867Z,6.40
2023-02-01T22:32:59.351Z,7.03
2023-02-01T22:35:02.378Z,6.38
2023-02-01T22:37:05.388Z,6.40
2023-02-01T22:39:09.519Z,6.03
2023-02-01T22:41:13.051Z,6.63
2023-02-01T22:43:16.086Z,5.65
2023-02-01T22:45:19.094Z,5.70
2023-02-01T22:47:22.307Z,7.18
2023-02-01T22:49:26.834Z,7.32
2023-02-01T22:51:33.005Z,6.88
2023-02-01T22:53:36.007Z,7.03
2023-02-01T22:55:41.008Z,6.70
2023-02-01T22:57:44.083Z,5.35
2023-02-01T22:59:47.132Z,5.63
2023-02-01T23:01:50.197Z,5.75
2023-02-01T23:03:57.442Z,5.90
2023-02-01T23:06:02.335Z,4.88
2023-02-01T23:08:05.395Z,5.95
2023-02-01T23:10:10.015Z,6.18
2023-02-01T23:12:13.081Z,6.20
2023-02-01T23:14:17.209Z,4.70
2023-02-01T23:16:20.533Z,6.10
2023-02-01T23:18:24.443Z,5.35
2023-02-01T23:20:27.498Z,5.40
2023-02-01T23:22:31.988Z,4.80
2023-02-01T23:24:35.013Z,5.30
2023-02-01T23:26:38.706Z,5.60
2023-02-01T23:28:41.833Z,6.55
2023-02-01T23:30:44.905Z,5.75
2023-02-01T23:32:48.038Z,5.57
2023-02-01T23:34:51.122Z,6.30
2023-02-01T23:36:54.146Z,5.85
2023-02-01T23:38:58.696Z,6.00
2023-02-01T23:41:03.249Z,5.40
2023-02-01T23:43:32.268Z,5.72
2023-02-01T23:45:35.414Z,6.28
2023-02-01T23:47:38.601Z,4.72
2023-02-01T23:49:42.371Z,5.75
2023-02-01T23:51:47.514Z,5.25
2023-02-01T23:53:50.845Z,5.32
2023-02-01T23:55:55.953Z,5.57
2023-02-01T23:57:58.975Z,4.40
